Погода Масатанна 2 недели

Чьяпас, Мексика

25 февраля-09 марта
  • 25февраля
    Сегодня
    +23°
    +32°
    Ясно и безоблачно
    ВремяПогодаТемператураВлажностьДавлениеВетер, м/сВероятность осадков
    00:00Ясно и безоблачно+25°C74 %760 мм1.6 м/с2 %
    03:00Ясно и безоблачно+24°C75 %759 мм2.0 м/с2 %
    06:00Ясно и безоблачно+23°C79 %759 мм1.5 м/с2 %
    09:00Ясно и безоблачно+29°C51 %760 мм0.3 м/с2 %
    12:00Ясно и безоблачно+31°C46 %760 мм3.9 м/с2 %
    15:00Ясно и безоблачно+30°C51 %757 мм4.5 м/с2 %
    18:00Ясно и безоблачно+28°C70 %758 мм2.6 м/с2 %
    21:00Ясно и безоблачно+27°C81 %759 мм1.2 м/с2 %
  • 26февраля
    Понедельник
    +22°
    +31°
    Ясно и безоблачно
    ВремяПогодаТемператураВлажностьДавлениеВетер, м/сВероятность осадков
    00:00Ясно и безоблачно+25°C87 %760 мм0.9 м/с2 %
    03:00Ясно и безоблачно+24°C82 %759 мм1.4 м/с2 %
    06:00Ясно и безоблачно+23°C79 %759 мм1.6 м/с1 %
    09:00Небольшая облачность+29°C60 %761 мм1.4 м/с2 %
    12:00Ясно и безоблачно+31°C49 %760 мм4.0 м/с2 %
    15:00Ясно и безоблачно+30°C51 %758 мм5.0 м/с2 %
    18:00Ясно и безоблачно+28°C61 %758 мм2.5 м/с2 %
    21:00Ясно и безоблачно+26°C75 %759 мм1.0 м/с2 %
  • 27февраля
    Вторник
    +23°
    +32°
    Ясно и безоблачно
    ВремяПогодаТемператураВлажностьДавлениеВетер, м/сВероятность осадков
    00:00Ясно и безоблачно+24°C75 %759 мм1.2 м/с2 %
    03:00Ясно и безоблачно+23°C75 %757 мм0.6 м/с2 %
    06:00Ясно и безоблачно+22°C75 %758 мм1.0 м/с2 %
    09:00Ясно и безоблачно+29°C47 %759 мм0.5 м/с2 %
    12:00Ясно и безоблачно+32°C40 %758 мм3.8 м/с2 %
    15:00Ясно и безоблачно+31°C45 %756 мм4.6 м/с2 %
    18:00Ясно и безоблачно+28°C60 %756 мм2.3 м/с2 %
    21:00Ясно и безоблачно+27°C76 %757 мм1.0 м/с2 %
  • 28февраля
    Среда
    +24°
    +32°
    Ясно и безоблачно
    ВремяПогодаТемператураВлажностьДавлениеВетер, м/сВероятность осадков
    00:00Ясно и безоблачно+25°C82 %757 мм0.8 м/с2 %
    03:00Ясно и безоблачно+24°C84 %756 мм1.0 м/с2 %
    06:00Ясно и безоблачно+23°C88 %757 мм0.9 м/с2 %
    09:00Ясно и безоблачно+29°C50 %759 мм1.5 м/с2 %
    12:00Ясно и безоблачно+32°C47 %758 мм4.3 м/с2 %
    15:00Ясно и безоблачно+31°C50 %756 мм5.0 м/с2 %
    18:00Ясно и безоблачно+29°C61 %757 мм3.0 м/с2 %
    21:00Ясно и безоблачно+27°C74 %758 мм1.7 м/с2 %
  • 29февраля
    Четверг
    +23°
    +33°
    Ясно и безоблачно
    ВремяПогодаТемператураВлажностьДавлениеВетер, м/сВероятность осадков
    00:00Ясно и безоблачно+26°C78 %758 мм1.2 м/с2 %
    03:00Ясно и безоблачно+25°C65 %757 мм2.0 м/с2 %
    06:00Ясно и безоблачно+24°C59 %758 мм2.7 м/с2 %
    09:00Ясно и безоблачно+29°C43 %759 мм2.8 м/с2 %
    12:00Ясно и безоблачно+32°C38 %758 мм4.4 м/с2 %
    15:00Ясно и безоблачно+31°C51 %756 мм4.6 м/с3 %
    18:00Ясно и безоблачно+28°C73 %757 мм2.7 м/с2 %
    21:00Ясно и безоблачно+27°C85 %759 мм0.8 м/с2 %
Мы используем cookies
Соглашаюсь